sensor_id;sensor_type;location;lat;lon;timestamp;P1;durP1;ratioP1;P2;durP2;ratioP2
44854;SDS011;30591;48.228;16.398;2023-07-09T00:02:01;0.20;;;0.20;;
44854;SDS011;30591;48.228;16.398;2023-07-09T00:04:29;0.20;;;0.20;;
44854;SDS011;30591;48.228;16.398;2023-07-09T00:06:58;0.20;;;0.20;;
44854;SDS011;30591;48.228;16.398;2023-07-09T00:09:29;0.40;;;0.40;;
44854;SDS011;30591;48.228;16.398;2023-07-09T00:11:57;0.43;;;0.43;;
44854;SDS011;30591;48.228;16.398;2023-07-09T00:14:24;0.13;;;0.13;;
44854;SDS011;30591;48.228;16.398;2023-07-09T00:16:51;0.20;;;0.20;;
44854;SDS011;30591;48.228;16.398;2023-07-09T00:19:20;0.53;;;0.53;;
44854;SDS011;30591;48.228;16.398;2023-07-09T00:21:51;2.90;;;1.53;;
44854;SDS011;30591;48.228;16.398;2023-07-09T00:24:21;0.20;;;0.20;;
44854;SDS011;30591;48.228;16.398;2023-07-09T00:26:49;0.23;;;0.23;;
44854;SDS011;30591;48.228;16.398;2023-07-09T00:29:17;0.10;;;0.10;;
44854;SDS011;30591;48.228;16.398;2023-07-09T00:31:45;0.20;;;0.20;;
44854;SDS011;30591;48.228;16.398;2023-07-09T00:34:14;0.20;;;0.20;;
44854;SDS011;30591;48.228;16.398;2023-07-09T00:36:45;0.77;;;0.60;;
44854;SDS011;30591;48.228;16.398;2023-07-09T00:39:16;0.20;;;0.20;;
44854;SDS011;30591;48.228;16.398;2023-07-09T00:41:46;0.27;;;0.27;;
44854;SDS011;30591;48.228;16.398;2023-07-09T00:52:05;0.23;;;0.23;;
44854;SDS011;30591;48.228;16.398;2023-07-09T00:54:46;0.30;;;0.30;;
44854;SDS011;30591;48.228;16.398;2023-07-09T00:57:15;0.10;;;0.10;;
44854;SDS011;30591;48.228;16.398;2023-07-09T00:59:53;0.20;;;0.20;;
44854;SDS011;30591;48.228;16.398;2023-07-09T01:02:27;0.20;;;0.20;;
44854;SDS011;30591;48.228;16.398;2023-07-09T01:04:57;0.20;;;0.20;;
44854;SDS011;30591;48.228;16.398;2023-07-09T01:07:29;0.13;;;0.13;;
44854;SDS011;30591;48.228;16.398;2023-07-09T01:09:57;0.20;;;0.20;;
44854;SDS011;30591;48.228;16.398;2023-07-09T01:12:24;0.20;;;0.20;;
44854;SDS011;30591;48.228;16.398;2023-07-09T01:14:53;0.67;;;0.50;;
44854;SDS011;30591;48.228;16.398;2023-07-09T01:17:26;0.10;;;0.10;;
44854;SDS011;30591;48.228;16.398;2023-07-09T01:19:56;0.33;;;0.33;;
44854;SDS011;30591;48.228;16.398;2023-07-09T01:22:23;0.30;;;0.30;;
44854;SDS011;30591;48.228;16.398;2023-07-09T01:24:53;0.50;;;0.50;;
44854;SDS011;30591;48.228;16.398;2023-07-09T01:30:09;0.63;;;0.60;;
44854;SDS011;30591;48.228;16.398;2023-07-09T01:32:41;0.20;;;0.20;;
44854;SDS011;30591;48.228;16.398;2023-07-09T01:35:13;0.20;;;0.20;;
44854;SDS011;30591;48.228;16.398;2023-07-09T01:37:42;0.30;;;0.30;;
44854;SDS011;30591;48.228;16.398;2023-07-09T01:40:11;0.13;;;0.13;;
44854;SDS011;30591;48.228;16.398;2023-07-09T01:42:56;0.20;;;0.20;;
44854;SDS011;30591;48.228;16.398;2023-07-09T01:45:26;0.70;;;0.70;;
44854;SDS011;30591;48.228;16.398;2023-07-09T01:47:55;0.20;;;0.20;;
44854;SDS011;30591;48.228;16.398;2023-07-09T01:50:24;0.20;;;0.20;;
44854;SDS011;30591;48.228;16.398;2023-07-09T01:52:55;0.20;;;0.20;;
44854;SDS011;30591;48.228;16.398;2023-07-09T01:55:24;0.30;;;0.30;;
44854;SDS011;30591;48.228;16.398;2023-07-09T01:57:51;0.17;;;0.17;;
44854;SDS011;30591;48.228;16.398;2023-07-09T02:00:20;0.20;;;0.20;;
44854;SDS011;30591;48.228;16.398;2023-07-09T02:02:47;0.10;;;0.10;;
44854;SDS011;30591;48.228;16.398;2023-07-09T02:05:19;0.30;;;0.30;;
44854;SDS011;30591;48.228;16.398;2023-07-09T02:07:47;0.20;;;0.20;;
44854;SDS011;30591;48.228;16.398;2023-07-09T02:10:16;0.20;;;0.20;;
44854;SDS011;30591;48.228;16.398;2023-07-09T02:12:44;0.50;;;0.50;;
44854;SDS011;30591;48.228;16.398;2023-07-09T02:15:12;0.33;;;0.33;;
44854;SDS011;30591;48.228;16.398;2023-07-09T02:17:39;0.20;;;0.20;;
44854;SDS011;30591;48.228;16.398;2023-07-09T02:20:08;0.17;;;0.17;;
44854;SDS011;30591;48.228;16.398;2023-07-09T02:22:37;0.40;;;0.40;;
44854;SDS011;30591;48.228;16.398;2023-07-09T02:25:06;0.10;;;0.10;;
44854;SDS011;30591;48.228;16.398;2023-07-09T02:27:35;0.30;;;0.30;;
44854;SDS011;30591;48.228;16.398;2023-07-09T02:30:04;1.20;;;1.20;;
44854;SDS011;30591;48.228;16.398;2023-07-09T02:32:33;0.20;;;0.20;;
44854;SDS011;30591;48.228;16.398;2023-07-09T02:35:00;0.20;;;0.20;;
44854;SDS011;30591;48.228;16.398;2023-07-09T02:37:28;0.40;;;0.40;;
44854;SDS011;30591;48.228;16.398;2023-07-09T02:39:56;0.20;;;0.20;;
44854;SDS011;30591;48.228;16.398;2023-07-09T02:42:23;0.30;;;0.30;;
44854;SDS011;30591;48.228;16.398;2023-07-09T02:44:51;0.67;;;0.67;;
44854;SDS011;30591;48.228;16.398;2023-07-09T02:47:18;0.20;;;0.20;;
44854;SDS011;30591;48.228;16.398;2023-07-09T02:49:48;0.20;;;0.20;;
44854;SDS011;30591;48.228;16.398;2023-07-09T02:52:15;0.77;;;0.20;;
44854;SDS011;30591;48.228;16.398;2023-07-09T02:54:43;0.50;;;0.50;;
44854;SDS011;30591;48.228;16.398;2023-07-09T02:57:10;0.20;;;0.20;;
44854;SDS011;30591;48.228;16.398;2023-07-09T02:59:38;0.10;;;0.10;;
44854;SDS011;30591;48.228;16.398;2023-07-09T03:02:05;0.20;;;0.20;;
44854;SDS011;30591;48.228;16.398;2023-07-09T03:04:33;0.50;;;0.50;;
44854;SDS011;30591;48.228;16.398;2023-07-09T03:07:00;0.30;;;0.30;;
44854;SDS011;30591;48.228;16.398;2023-07-09T03:09:28;0.20;;;0.20;;
44854;SDS011;30591;48.228;16.398;2023-07-09T03:11:56;0.20;;;0.20;;
44854;SDS011;30591;48.228;16.398;2023-07-09T03:14:23;0.20;;;0.20;;
44854;SDS011;30591;48.228;16.398;2023-07-09T03:16:51;0.40;;;0.40;;
44854;SDS011;30591;48.228;16.398;2023-07-09T03:19:19;0.20;;;0.20;;
44854;SDS011;30591;48.228;16.398;2023-07-09T03:21:47;0.50;;;0.50;;
44854;SDS011;30591;48.228;16.398;2023-07-09T03:24:14;0.57;;;0.57;;
44854;SDS011;30591;48.228;16.398;2023-07-09T03:26:46;0.10;;;0.10;;
44854;SDS011;30591;48.228;16.398;2023-07-09T03:29:15;0.20;;;0.20;;
44854;SDS011;30591;48.228;16.398;2023-07-09T03:31:42;0.37;;;0.37;;
44854;SDS011;30591;48.228;16.398;2023-07-09T03:34:10;0.30;;;0.30;;
44854;SDS011;30591;48.228;16.398;2023-07-09T03:36:37;0.30;;;0.30;;
44854;SDS011;30591;48.228;16.398;2023-07-09T03:39:05;0.60;;;0.60;;
44854;SDS011;30591;48.228;16.398;2023-07-09T03:41:34;0.20;;;0.20;;
44854;SDS011;30591;48.228;16.398;2023-07-09T03:44:01;0.10;;;0.10;;
44854;SDS011;30591;48.228;16.398;2023-07-09T03:46:29;0.10;;;0.10;;
44854;SDS011;30591;48.228;16.398;2023-07-09T03:48:58;0.20;;;0.20;;
44854;SDS011;30591;48.228;16.398;2023-07-09T03:51:26;0.20;;;0.20;;
44854;SDS011;30591;48.228;16.398;2023-07-09T03:53:54;0.47;;;0.47;;
44854;SDS011;30591;48.228;16.398;2023-07-09T03:56:22;0.40;;;0.40;;
44854;SDS011;30591;48.228;16.398;2023-07-09T03:58:49;0.63;;;0.63;;
44854;SDS011;30591;48.228;16.398;2023-07-09T04:01:17;0.20;;;0.20;;
44854;SDS011;30591;48.228;16.398;2023-07-09T04:03:44;0.70;;;0.70;;
44854;SDS011;30591;48.228;16.398;2023-07-09T04:06:12;0.40;;;0.40;;
44854;SDS011;30591;48.228;16.398;2023-07-09T04:08:39;0.20;;;0.20;;
44854;SDS011;30591;48.228;16.398;2023-07-09T04:11:06;0.20;;;0.20;;
44854;SDS011;30591;48.228;16.398;2023-07-09T04:13:34;0.20;;;0.20;;
44854;SDS011;30591;48.228;16.398;2023-07-09T04:16:01;0.20;;;0.20;;
44854;SDS011;30591;48.228;16.398;2023-07-09T04:18:29;0.50;;;0.50;;
44854;SDS011;30591;48.228;16.398;2023-07-09T04:20:56;0.30;;;0.30;;
44854;SDS011;30591;48.228;16.398;2023-07-09T04:23:23;0.23;;;0.23;;
44854;SDS011;30591;48.228;16.398;2023-07-09T04:25:51;0.20;;;0.20;;
44854;SDS011;30591;48.228;16.398;2023-07-09T04:28:18;0.20;;;0.20;;
44854;SDS011;30591;48.228;16.398;2023-07-09T04:30:49;0.30;;;0.30;;
44854;SDS011;30591;48.228;16.398;2023-07-09T04:33:17;0.20;;;0.20;;
44854;SDS011;30591;48.228;16.398;2023-07-09T04:35:46;0.40;;;0.40;;
44854;SDS011;30591;48.228;16.398;2023-07-09T04:38:15;0.37;;;0.37;;
44854;SDS011;30591;48.228;16.398;2023-07-09T04:40:43;0.20;;;0.20;;
44854;SDS011;30591;48.228;16.398;2023-07-09T04:43:10;1.17;;;1.10;;
44854;SDS011;30591;48.228;16.398;2023-07-09T04:45:38;0.60;;;0.60;;
44854;SDS011;30591;48.228;16.398;2023-07-09T04:48:06;0.50;;;0.50;;
44854;SDS011;30591;48.228;16.398;2023-07-09T04:50:34;0.20;;;0.20;;
44854;SDS011;30591;48.228;16.398;2023-07-09T04:53:01;0.20;;;0.20;;
44854;SDS011;30591;48.228;16.398;2023-07-09T04:55:30;0.30;;;0.30;;
44854;SDS011;30591;48.228;16.398;2023-07-09T04:57:57;0.20;;;0.20;;
44854;SDS011;30591;48.228;16.398;2023-07-09T05:00:24;0.20;;;0.20;;
44854;SDS011;30591;48.228;16.398;2023-07-09T05:02:52;0.20;;;0.20;;
44854;SDS011;30591;48.228;16.398;2023-07-09T05:05:19;0.30;;;0.30;;
44854;SDS011;30591;48.228;16.398;2023-07-09T05:07:46;0.20;;;0.20;;
44854;SDS011;30591;48.228;16.398;2023-07-09T05:10:14;0.30;;;0.30;;
44854;SDS011;30591;48.228;16.398;2023-07-09T05:12:48;0.20;;;0.20;;
44854;SDS011;30591;48.228;16.398;2023-07-09T05:15:18;2.28;;;0.50;;
44854;SDS011;30591;48.228;16.398;2023-07-09T05:17:48;0.20;;;0.20;;
44854;SDS011;30591;48.228;16.398;2023-07-09T05:20:15;1.55;;;0.38;;
44854;SDS011;30591;48.228;16.398;2023-07-09T05:22:43;0.65;;;0.65;;
44854;SDS011;30591;48.228;16.398;2023-07-09T05:25:10;0.65;;;0.65;;
44854;SDS011;30591;48.228;16.398;2023-07-09T05:27:37;0.20;;;0.20;;
44854;SDS011;30591;48.228;16.398;2023-07-09T05:30:05;0.35;;;0.35;;
44854;SDS011;30591;48.228;16.398;2023-07-09T05:32:33;0.20;;;0.20;;
44854;SDS011;30591;48.228;16.398;2023-07-09T05:35:00;0.10;;;0.10;;
44854;SDS011;30591;48.228;16.398;2023-07-09T05:37:27;0.30;;;0.30;;
44854;SDS011;30591;48.228;16.398;2023-07-09T05:39:55;1.02;;;0.75;;
44854;SDS011;30591;48.228;16.398;2023-07-09T05:42:22;0.32;;;0.32;;
44854;SDS011;30591;48.228;16.398;2023-07-09T05:44:50;0.52;;;0.52;;
44854;SDS011;30591;48.228;16.398;2023-07-09T05:47:18;0.30;;;0.30;;
44854;SDS011;30591;48.228;16.398;2023-07-09T05:49:45;0.25;;;0.25;;
44854;SDS011;30591;48.228;16.398;2023-07-09T05:52:16;0.30;;;0.30;;
44854;SDS011;30591;48.228;16.398;2023-07-09T05:54:45;0.17;;;0.17;;
44854;SDS011;30591;48.228;16.398;2023-07-09T05:57:15;0.20;;;0.20;;
44854;SDS011;30591;48.228;16.398;2023-07-09T05:59:42;0.45;;;0.45;;
44854;SDS011;30591;48.228;16.398;2023-07-09T06:02:11;0.30;;;0.30;;
44854;SDS011;30591;48.228;16.398;2023-07-09T06:04:39;0.57;;;0.57;;
44854;SDS011;30591;48.228;16.398;2023-07-09T06:07:07;0.30;;;0.30;;
44854;SDS011;30591;48.228;16.398;2023-07-09T06:09:35;0.40;;;0.40;;
44854;SDS011;30591;48.228;16.398;2023-07-09T06:12:03;0.35;;;0.35;;
44854;SDS011;30591;48.228;16.398;2023-07-09T06:14:32;0.20;;;0.20;;
44854;SDS011;30591;48.228;16.398;2023-07-09T06:17:00;0.65;;;0.65;;
44854;SDS011;30591;48.228;16.398;2023-07-09T06:19:28;0.30;;;0.30;;
44854;SDS011;30591;48.228;16.398;2023-07-09T06:21:55;0.40;;;0.40;;
44854;SDS011;30591;48.228;16.398;2023-07-09T06:24:23;0.88;;;0.60;;
44854;SDS011;30591;48.228;16.398;2023-07-09T06:26:50;0.50;;;0.50;;
44854;SDS011;30591;48.228;16.398;2023-07-09T06:29:17;0.57;;;0.57;;
44854;SDS011;30591;48.228;16.398;2023-07-09T06:31:45;0.20;;;0.20;;
44854;SDS011;30591;48.228;16.398;2023-07-09T06:34:12;1.80;;;0.45;;
44854;SDS011;30591;48.228;16.398;2023-07-09T06:36:39;0.50;;;0.50;;
44854;SDS011;30591;48.228;16.398;2023-07-09T06:39:09;0.38;;;0.38;;
44854;SDS011;30591;48.228;16.398;2023-07-09T06:41:37;0.52;;;0.52;;
44854;SDS011;30591;48.228;16.398;2023-07-09T06:44:26;0.32;;;0.32;;
44854;SDS011;30591;48.228;16.398;2023-07-09T06:46:53;9.13;;;0.52;;
44854;SDS011;30591;48.228;16.398;2023-07-09T06:49:21;0.45;;;0.45;;
44854;SDS011;30591;48.228;16.398;2023-07-09T06:51:48;0.30;;;0.30;;
44854;SDS011;30591;48.228;16.398;2023-07-09T06:54:15;1.33;;;1.27;;
44854;SDS011;30591;48.228;16.398;2023-07-09T06:56:42;0.50;;;0.50;;
44854;SDS011;30591;48.228;16.398;2023-07-09T06:59:10;0.20;;;0.20;;
44854;SDS011;30591;48.228;16.398;2023-07-09T07:01:37;0.22;;;0.22;;
44854;SDS011;30591;48.228;16.398;2023-07-09T07:04:04;0.30;;;0.30;;
44854;SDS011;30591;48.228;16.398;2023-07-09T07:06:31;0.20;;;0.20;;
44854;SDS011;30591;48.228;16.398;2023-07-09T07:08:59;0.35;;;0.35;;
44854;SDS011;30591;48.228;16.398;2023-07-09T07:11:26;0.30;;;0.30;;
44854;SDS011;30591;48.228;16.398;2023-07-09T07:13:57;0.50;;;0.50;;
44854;SDS011;30591;48.228;16.398;2023-07-09T07:16:25;0.52;;;0.52;;
44854;SDS011;30591;48.228;16.398;2023-07-09T07:18:52;0.20;;;0.20;;
44854;SDS011;30591;48.228;16.398;2023-07-09T07:21:19;0.38;;;0.38;;
44854;SDS011;30591;48.228;16.398;2023-07-09T07:23:46;0.20;;;0.20;;
44854;SDS011;30591;48.228;16.398;2023-07-09T07:26:16;0.20;;;0.20;;
44854;SDS011;30591;48.228;16.398;2023-07-09T07:28:43;0.20;;;0.20;;
44854;SDS011;30591;48.228;16.398;2023-07-09T07:31:10;0.20;;;0.20;;
44854;SDS011;30591;48.228;16.398;2023-07-09T07:33:39;0.50;;;0.50;;
44854;SDS011;30591;48.228;16.398;2023-07-09T07:36:08;0.20;;;0.20;;
44854;SDS011;30591;48.228;16.398;2023-07-09T07:38:39;0.40;;;0.28;;
44854;SDS011;30591;48.228;16.398;2023-07-09T07:41:06;0.43;;;0.43;;
44854;SDS011;30591;48.228;16.398;2023-07-09T07:43:34;0.50;;;0.50;;
44854;SDS011;30591;48.228;16.398;2023-07-09T07:46:01;0.30;;;0.30;;
44854;SDS011;30591;48.228;16.398;2023-07-09T07:48:30;0.20;;;0.20;;
44854;SDS011;30591;48.228;16.398;2023-07-09T07:51:00;0.40;;;0.40;;
44854;SDS011;30591;48.228;16.398;2023-07-09T07:53:30;0.40;;;0.40;;
44854;SDS011;30591;48.228;16.398;2023-07-09T07:55:58;0.52;;;0.43;;
44854;SDS011;30591;48.228;16.398;2023-07-09T07:58:30;1.05;;;0.95;;
44854;SDS011;30591;48.228;16.398;2023-07-09T08:00:57;0.35;;;0.35;;
44854;SDS011;30591;48.228;16.398;2023-07-09T08:03:25;0.60;;;0.60;;
44854;SDS011;30591;48.228;16.398;2023-07-09T08:05:53;0.30;;;0.30;;
44854;SDS011;30591;48.228;16.398;2023-07-09T08:08:21;0.28;;;0.28;;
44854;SDS011;30591;48.228;16.398;2023-07-09T08:10:51;0.60;;;0.60;;
44854;SDS011;30591;48.228;16.398;2023-07-09T08:13:18;0.40;;;0.40;;
44854;SDS011;30591;48.228;16.398;2023-07-09T08:15:46;0.63;;;0.63;;
44854;SDS011;30591;48.228;16.398;2023-07-09T08:18:15;0.43;;;0.43;;
44854;SDS011;30591;48.228;16.398;2023-07-09T08:20:45;0.57;;;0.57;;
44854;SDS011;30591;48.228;16.398;2023-07-09T08:23:13;0.30;;;0.30;;
44854;SDS011;30591;48.228;16.398;2023-07-09T08:25:40;0.20;;;0.20;;
44854;SDS011;30591;48.228;16.398;2023-07-09T08:28:07;0.95;;;0.45;;
44854;SDS011;30591;48.228;16.398;2023-07-09T08:30:35;0.40;;;0.40;;
44854;SDS011;30591;48.228;16.398;2023-07-09T08:33:03;0.77;;;0.77;;
44854;SDS011;30591;48.228;16.398;2023-07-09T08:35:30;0.50;;;0.50;;
44854;SDS011;30591;48.228;16.398;2023-07-09T08:38:02;0.80;;;0.45;;
44854;SDS011;30591;48.228;16.398;2023-07-09T08:40:30;0.55;;;0.55;;
44854;SDS011;30591;48.228;16.398;2023-07-09T08:43:01;0.40;;;0.40;;
44854;SDS011;30591;48.228;16.398;2023-07-09T08:45:41;0.75;;;0.75;;
44854;SDS011;30591;48.228;16.398;2023-07-09T08:48:34;0.40;;;0.40;;
44854;SDS011;30591;48.228;16.398;2023-07-09T08:53:38;0.43;;;0.43;;
44854;SDS011;30591;48.228;16.398;2023-07-09T08:56:13;0.95;;;0.77;;
44854;SDS011;30591;48.228;16.398;2023-07-09T08:58:41;0.47;;;0.47;;
44854;SDS011;30591;48.228;16.398;2023-07-09T09:01:18;0.40;;;0.40;;
44854;SDS011;30591;48.228;16.398;2023-07-09T09:03:48;0.20;;;0.20;;
44854;SDS011;30591;48.228;16.398;2023-07-09T09:06:22;0.32;;;0.32;;
44854;SDS011;30591;48.228;16.398;2023-07-09T09:14:57;0.73;;;0.73;;
44854;SDS011;30591;48.228;16.398;2023-07-09T09:17:27;0.30;;;0.30;;
44854;SDS011;30591;48.228;16.398;2023-07-09T09:19:58;1.00;;;0.90;;
44854;SDS011;30591;48.228;16.398;2023-07-09T09:22:29;0.47;;;0.47;;
44854;SDS011;30591;48.228;16.398;2023-07-09T09:27:42;0.82;;;0.82;;
44854;SDS011;30591;48.228;16.398;2023-07-09T09:30:14;0.30;;;0.30;;
44854;SDS011;30591;48.228;16.398;2023-07-09T09:32:44;0.25;;;0.25;;
44854;SDS011;30591;48.228;16.398;2023-07-09T09:35:15;0.20;;;0.20;;
44854;SDS011;30591;48.228;16.398;2023-07-09T09:37:51;1.08;;;0.55;;
44854;SDS011;30591;48.228;16.398;2023-07-09T09:40:21;0.25;;;0.25;;
44854;SDS011;30591;48.228;16.398;2023-07-09T09:42:50;0.47;;;0.40;;
44854;SDS011;30591;48.228;16.398;2023-07-09T09:45:21;0.40;;;0.40;;
44854;SDS011;30591;48.228;16.398;2023-07-09T09:47:57;0.30;;;0.30;;
44854;SDS011;30591;48.228;16.398;2023-07-09T09:50:27;0.70;;;0.70;;
44854;SDS011;30591;48.228;16.398;2023-07-09T09:52:59;0.30;;;0.30;;
44854;SDS011;30591;48.228;16.398;2023-07-09T09:55:29;0.90;;;0.40;;
44854;SDS011;30591;48.228;16.398;2023-07-09T09:57:59;0.40;;;0.40;;
44854;SDS011;30591;48.228;16.398;2023-07-09T10:00:27;0.63;;;0.63;;
44854;SDS011;30591;48.228;16.398;2023-07-09T10:03:00;0.50;;;0.50;;
44854;SDS011;30591;48.228;16.398;2023-07-09T10:05:38;0.40;;;0.40;;
44854;SDS011;30591;48.228;16.398;2023-07-09T10:08:24;0.20;;;0.20;;
44854;SDS011;30591;48.228;16.398;2023-07-09T10:11:22;0.65;;;0.65;;
44854;SDS011;30591;48.228;16.398;2023-07-09T10:13:57;0.20;;;0.20;;
44854;SDS011;30591;48.228;16.398;2023-07-09T10:16:48;0.38;;;0.38;;
44854;SDS011;30591;48.228;16.398;2023-07-09T10:19:47;0.60;;;0.45;;
44854;SDS011;30591;48.228;16.398;2023-07-09T10:25:12;0.50;;;0.50;;
44854;SDS011;30591;48.228;16.398;2023-07-09T10:31:31;0.25;;;0.25;;
44854;SDS011;30591;48.228;16.398;2023-07-09T10:39:32;0.65;;;0.65;;
44854;SDS011;30591;48.228;16.398;2023-07-09T10:42:04;0.30;;;0.30;;
44854;SDS011;30591;48.228;16.398;2023-07-09T10:44:36;0.20;;;0.20;;
44854;SDS011;30591;48.228;16.398;2023-07-09T10:47:10;0.20;;;0.20;;
44854;SDS011;30591;48.228;16.398;2023-07-09T10:49:55;0.20;;;0.20;;
44854;SDS011;30591;48.228;16.398;2023-07-09T10:52:34;0.47;;;0.47;;
44854;SDS011;30591;48.228;16.398;2023-07-09T10:55:09;0.50;;;0.47;;
44854;SDS011;30591;48.228;16.398;2023-07-09T11:00:39;0.60;;;0.60;;
44854;SDS011;30591;48.228;16.398;2023-07-09T11:03:15;0.30;;;0.30;;
44854;SDS011;30591;48.228;16.398;2023-07-09T11:05:47;0.40;;;0.40;;
44854;SDS011;30591;48.228;16.398;2023-07-09T11:10:55;0.30;;;0.30;;
44854;SDS011;30591;48.228;16.398;2023-07-09T11:16:25;0.40;;;0.40;;
44854;SDS011;30591;48.228;16.398;2023-07-09T11:18:58;0.20;;;0.20;;
44854;SDS011;30591;48.228;16.398;2023-07-09T11:21:28;0.20;;;0.20;;
44854;SDS011;30591;48.228;16.398;2023-07-09T11:23:57;0.20;;;0.20;;
44854;SDS011;30591;48.228;16.398;2023-07-09T11:26:27;0.98;;;0.98;;
44854;SDS011;30591;48.228;16.398;2023-07-09T11:29:09;0.55;;;0.55;;
44854;SDS011;30591;48.228;16.398;2023-07-09T11:31:44;0.60;;;0.60;;
44854;SDS011;30591;48.228;16.398;2023-07-09T11:47:46;0.22;;;0.22;;
44854;SDS011;30591;48.228;16.398;2023-07-09T11:52:59;0.30;;;0.30;;
44854;SDS011;30591;48.228;16.398;2023-07-09T11:58:17;0.20;;;0.20;;
44854;SDS011;30591;48.228;16.398;2023-07-09T12:00:54;0.30;;;0.30;;
44854;SDS011;30591;48.228;16.398;2023-07-09T12:03:25;0.30;;;0.30;;
44854;SDS011;30591;48.228;16.398;2023-07-09T12:06:05;0.47;;;0.47;;
44854;SDS011;30591;48.228;16.398;2023-07-09T12:08:44;0.28;;;0.28;;
44854;SDS011;30591;48.228;16.398;2023-07-09T12:11:19;0.40;;;0.40;;
44854;SDS011;30591;48.228;16.398;2023-07-09T12:13:51;0.22;;;0.22;;
44854;SDS011;30591;48.228;16.398;2023-07-09T12:16:33;0.60;;;0.60;;
44854;SDS011;30591;48.228;16.398;2023-07-09T12:19:18;0.50;;;0.50;;
44854;SDS011;30591;48.228;16.398;2023-07-09T12:21:51;1.38;;;0.55;;
44854;SDS011;30591;48.228;16.398;2023-07-09T12:24:24;0.22;;;0.22;;
44854;SDS011;30591;48.228;16.398;2023-07-09T12:26:59;0.47;;;0.47;;
44854;SDS011;30591;48.228;16.398;2023-07-09T12:29:28;0.40;;;0.40;;
44854;SDS011;30591;48.228;16.398;2023-07-09T12:31:58;0.55;;;0.50;;
44854;SDS011;30591;48.228;16.398;2023-07-09T12:34:30;0.20;;;0.20;;
44854;SDS011;30591;48.228;16.398;2023-07-09T12:36:58;0.50;;;0.50;;
44854;SDS011;30591;48.228;16.398;2023-07-09T12:39:27;15.10;;;0.75;;
44854;SDS011;30591;48.228;16.398;2023-07-09T12:41:58;0.65;;;0.50;;
44854;SDS011;30591;48.228;16.398;2023-07-09T12:44:29;0.30;;;0.30;;
44854;SDS011;30591;48.228;16.398;2023-07-09T12:47:01;0.40;;;0.40;;
44854;SDS011;30591;48.228;16.398;2023-07-09T12:49:30;0.70;;;0.70;;
44854;SDS011;30591;48.228;16.398;2023-07-09T12:52:22;0.60;;;0.60;;
44854;SDS011;30591;48.228;16.398;2023-07-09T12:54:51;0.40;;;0.40;;
44854;SDS011;30591;48.228;16.398;2023-07-09T12:57:22;0.77;;;0.77;;
44854;SDS011;30591;48.228;16.398;2023-07-09T12:59:50;0.50;;;0.50;;
44854;SDS011;30591;48.228;16.398;2023-07-09T13:02:24;0.30;;;0.30;;
44854;SDS011;30591;48.228;16.398;2023-07-09T13:05:02;1.65;;;1.13;;
44854;SDS011;30591;48.228;16.398;2023-07-09T13:07:33;0.77;;;0.70;;
44854;SDS011;30591;48.228;16.398;2023-07-09T13:10:23;0.50;;;0.50;;
44854;SDS011;30591;48.228;16.398;2023-07-09T13:12:54;0.80;;;0.80;;
44854;SDS011;30591;48.228;16.398;2023-07-09T13:18:03;1.20;;;1.20;;
44854;SDS011;30591;48.228;16.398;2023-07-09T13:20:34;1.25;;;1.25;;
44854;SDS011;30591;48.228;16.398;2023-07-09T13:23:10;1.35;;;1.35;;
44854;SDS011;30591;48.228;16.398;2023-07-09T13:25:41;1.70;;;1.70;;
44854;SDS011;30591;48.228;16.398;2023-07-09T13:28:26;2.33;;;2.22;;
44854;SDS011;30591;48.228;16.398;2023-07-09T13:30:58;2.25;;;2.25;;
44854;SDS011;30591;48.228;16.398;2023-07-09T13:33:32;2.10;;;2.10;;
44854;SDS011;30591;48.228;16.398;2023-07-09T13:36:03;1.95;;;1.95;;
44854;SDS011;30591;48.228;16.398;2023-07-09T13:38:31;2.75;;;2.65;;
44854;SDS011;30591;48.228;16.398;2023-07-09T13:41:00;2.20;;;2.20;;
44854;SDS011;30591;48.228;16.398;2023-07-09T13:43:36;2.20;;;2.20;;
44854;SDS011;30591;48.228;16.398;2023-07-09T13:46:05;2.10;;;2.00;;
44854;SDS011;30591;48.228;16.398;2023-07-09T13:48:34;1.40;;;1.40;;
44854;SDS011;30591;48.228;16.398;2023-07-09T13:51:20;0.90;;;0.90;;
44854;SDS011;30591;48.228;16.398;2023-07-09T13:53:49;0.70;;;0.70;;
44854;SDS011;30591;48.228;16.398;2023-07-09T13:56:19;1.42;;;1.33;;
44854;SDS011;30591;48.228;16.398;2023-07-09T13:58:47;0.60;;;0.60;;
44854;SDS011;30591;48.228;16.398;2023-07-09T14:01:18;0.40;;;0.40;;
44854;SDS011;30591;48.228;16.398;2023-07-09T14:03:49;1.15;;;1.15;;
44854;SDS011;30591;48.228;16.398;2023-07-09T14:06:17;0.38;;;0.38;;
44854;SDS011;30591;48.228;16.398;2023-07-09T14:08:45;0.35;;;0.35;;
44854;SDS011;30591;48.228;16.398;2023-07-09T14:11:13;4.68;;;1.10;;
44854;SDS011;30591;48.228;16.398;2023-07-09T14:13:42;0.50;;;0.50;;
44854;SDS011;30591;48.228;16.398;2023-07-09T14:16:13;0.43;;;0.43;;
44854;SDS011;30591;48.228;16.398;2023-07-09T14:18:42;0.50;;;0.50;;
44854;SDS011;30591;48.228;16.398;2023-07-09T14:21:14;0.60;;;0.60;;
44854;SDS011;30591;48.228;16.398;2023-07-09T14:23:45;0.63;;;0.63;;
44854;SDS011;30591;48.228;16.398;2023-07-09T14:26:12;1.20;;;1.20;;
44854;SDS011;30591;48.228;16.398;2023-07-09T14:28:40;1.40;;;1.35;;
44854;SDS011;30591;48.228;16.398;2023-07-09T14:31:28;1.33;;;1.33;;
44854;SDS011;30591;48.228;16.398;2023-07-09T14:34:04;1.75;;;1.75;;
44854;SDS011;30591;48.228;16.398;2023-07-09T14:36:59;2.50;;;2.40;;
44854;SDS011;30591;48.228;16.398;2023-07-09T14:39:28;2.30;;;2.30;;
44854;SDS011;30591;48.228;16.398;2023-07-09T14:41:55;3.05;;;2.95;;
44854;SDS011;30591;48.228;16.398;2023-07-09T14:46:54;3.70;;;3.60;;
44854;SDS011;30591;48.228;16.398;2023-07-09T14:49:24;4.50;;;4.30;;
44854;SDS011;30591;48.228;16.398;2023-07-09T14:51:53;4.50;;;4.40;;
44854;SDS011;30591;48.228;16.398;2023-07-09T14:54:22;4.45;;;4.35;;
44854;SDS011;30591;48.228;16.398;2023-07-09T14:56:55;5.20;;;5.00;;
44854;SDS011;30591;48.228;16.398;2023-07-09T14:59:24;5.20;;;5.10;;
44854;SDS011;30591;48.228;16.398;2023-07-09T15:01:52;5.50;;;5.30;;
44854;SDS011;30591;48.228;16.398;2023-07-09T15:06:51;6.47;;;6.28;;
44854;SDS011;30591;48.228;16.398;2023-07-09T15:09:21;5.70;;;5.50;;
44854;SDS011;30591;48.228;16.398;2023-07-09T15:11:51;5.90;;;5.70;;
44854;SDS011;30591;48.228;16.398;2023-07-09T15:14:24;6.10;;;5.90;;
44854;SDS011;30591;48.228;16.398;2023-07-09T15:16:53;5.95;;;5.75;;
44854;SDS011;30591;48.228;16.398;2023-07-09T15:19:26;6.00;;;5.80;;
44854;SDS011;30591;48.228;16.398;2023-07-09T15:21:54;5.65;;;5.45;;
44854;SDS011;30591;48.228;16.398;2023-07-09T15:24:25;5.65;;;5.45;;
44854;SDS011;30591;48.228;16.398;2023-07-09T15:26:56;5.35;;;5.20;;
44854;SDS011;30591;48.228;16.398;2023-07-09T15:29:24;4.97;;;4.88;;
44854;SDS011;30591;48.228;16.398;2023-07-09T15:31:53;5.20;;;5.00;;
44854;SDS011;30591;48.228;16.398;2023-07-09T15:34:20;4.80;;;4.70;;
44854;SDS011;30591;48.228;16.398;2023-07-09T15:36:48;4.60;;;4.50;;
44854;SDS011;30591;48.228;16.398;2023-07-09T15:39:17;4.40;;;4.30;;
44854;SDS011;30591;48.228;16.398;2023-07-09T15:41:47;4.13;;;4.03;;
44854;SDS011;30591;48.228;16.398;2023-07-09T15:44:15;4.00;;;3.90;;
44854;SDS011;30591;48.228;16.398;2023-07-09T15:46:53;4.25;;;4.15;;
44854;SDS011;30591;48.228;16.398;2023-07-09T15:49:23;3.88;;;3.78;;
44854;SDS011;30591;48.228;16.398;2023-07-09T15:51:51;3.80;;;3.70;;
44854;SDS011;30591;48.228;16.398;2023-07-09T15:54:19;3.30;;;3.20;;
44854;SDS011;30591;48.228;16.398;2023-07-09T15:56:48;3.00;;;2.90;;
44854;SDS011;30591;48.228;16.398;2023-07-09T15:59:36;2.92;;;2.83;;
44854;SDS011;30591;48.228;16.398;2023-07-09T16:02:12;2.90;;;2.80;;